createdAt,value
2019-01-22T00:02:20.003Z,-6.10
2019-01-22T00:04:48.577Z,-6.00
2019-01-22T00:07:17.135Z,-6.00
2019-01-22T00:09:45.910Z,-6.00
2019-01-22T00:12:14.465Z,-6.10
2019-01-22T00:14:43.048Z,-6.10
2019-01-22T00:17:11.594Z,-5.90
2019-01-22T00:19:40.174Z,-6.10
2019-01-22T00:22:08.718Z,-6.20
2019-01-22T00:24:37.297Z,-6.20
2019-01-22T00:27:05.910Z,-6.10
2019-01-22T00:29:34.482Z,-6.10
2019-01-22T00:32:03.044Z,-6.20
2019-01-22T00:34:31.618Z,-6.30
2019-01-22T00:37:00.468Z,-6.30
2019-01-22T00:39:29.043Z,-6.30
2019-01-22T00:41:58.565Z,-6.30
2019-01-22T00:44:27.133Z,-6.30
2019-01-22T00:46:55.678Z,-6.30
2019-01-22T00:49:24.323Z,-6.30
2019-01-22T00:51:52.974Z,-6.20
2019-01-22T00:54:21.559Z,-6.20
2019-01-22T00:56:50.104Z,-6.40
2019-01-22T00:59:18.678Z,-6.40
2019-01-22T01:01:47.225Z,-6.40
2019-01-22T01:04:15.803Z,-6.50
2019-01-22T01:06:44.486Z,-6.40
2019-01-22T01:09:13.074Z,-6.50
2019-01-22T01:11:41.625Z,-6.60
2019-01-22T01:14:10.197Z,-6.60
2019-01-22T01:16:38.750Z,-6.70
2019-01-22T01:19:07.730Z,-6.70
2019-01-22T01:21:36.624Z,-6.70
2019-01-22T01:24:05.246Z,-6.70
2019-01-22T01:26:33.822Z,-6.70
2019-01-22T01:29:02.366Z,-6.70
2019-01-22T01:31:30.938Z,-6.60
2019-01-22T01:33:59.902Z,-6.60
2019-01-22T01:36:28.479Z,-6.60
2019-01-22T01:38:57.306Z,-6.60
2019-01-22T01:41:25.946Z,-6.50
2019-01-22T01:43:54.498Z,-6.50
2019-01-22T01:46:23.076Z,-6.60
2019-01-22T01:48:52.191Z,-6.60
2019-01-22T01:51:20.761Z,-6.60
2019-01-22T01:53:49.307Z,-6.70
2019-01-22T01:56:17.892Z,-6.60
2019-01-22T01:58:46.442Z,-6.60
2019-01-22T02:01:15.016Z,-6.50
2019-01-22T02:03:43.842Z,-6.50
2019-01-22T02:06:12.411Z,-6.40
2019-01-22T02:08:40.970Z,-6.50
2019-01-22T02:11:09.530Z,-6.50
2019-01-22T02:13:38.385Z,-6.40
2019-01-22T02:16:10.320Z,-6.40
2019-01-22T02:18:54.208Z,-6.50
2019-01-22T02:21:40.698Z,-6.40
2019-01-22T02:24:28.991Z,-6.50
2019-01-22T02:27:18.510Z,-6.60
2019-01-22T02:29:52.796Z,-6.60
2019-01-22T02:32:36.143Z,-6.70
2019-01-22T02:35:24.060Z,-6.80
2019-01-22T02:38:07.490Z,-6.80
2019-01-22T02:40:44.836Z,-6.90
2019-01-22T02:43:31.601Z,-6.90
2019-01-22T02:46:21.368Z,-6.80
2019-01-22T02:48:53.014Z,-6.80
2019-01-22T02:51:56.646Z,-6.80
2019-01-22T02:54:26.434Z,-6.70
2019-01-22T02:57:13.198Z,-6.90
2019-01-22T03:00:00.224Z,-6.80
2019-01-22T03:02:34.576Z,-6.90
2019-01-22T03:05:09.165Z,-6.80
2019-01-22T03:07:52.816Z,-7.00
2019-01-22T03:10:33.222Z,-6.90
2019-01-22T03:13:07.794Z,-7.00
2019-01-22T03:15:48.082Z,-7.00
2019-01-22T03:18:39.356Z,-7.10
2019-01-22T03:21:27.574Z,-7.10
2019-01-22T03:24:15.593Z,-7.10
2019-01-22T03:27:04.018Z,-7.20
2019-01-22T03:29:47.678Z,-7.20
2019-01-22T03:32:28.199Z,-7.30
2019-01-22T03:35:17.974Z,-7.30
2019-01-22T03:38:10.482Z,-7.20
2019-01-22T03:40:44.821Z,-7.00
2019-01-22T03:43:18.996Z,-7.10
2019-01-22T03:45:50.617Z,-7.20
2019-01-22T03:48:35.464Z,-7.30
2019-01-22T03:51:21.916Z,-7.20
2019-01-22T03:54:21.109Z,-7.30
2019-01-22T03:56:55.313Z,-7.40
2019-01-22T03:59:23.903Z,-7.30
2019-01-22T04:01:52.708Z,-7.40
2019-01-22T04:04:21.282Z,-7.50
2019-01-22T04:06:49.975Z,-7.40
2019-01-22T04:09:21.409Z,-7.50
2019-01-22T04:11:50.047Z,-7.50
2019-01-22T04:14:18.824Z,-7.50
2019-01-22T04:16:47.379Z,-7.40
2019-01-22T04:19:16.023Z,-7.40
2019-01-22T04:21:44.712Z,-7.40
2019-01-22T04:24:31.246Z,-7.50
2019-01-22T04:27:11.871Z,-7.50
2019-01-22T04:30:18.436Z,-7.50
2019-01-22T04:32:52.551Z,-7.60
2019-01-22T04:35:32.985Z,-7.50
2019-01-22T04:38:05.022Z,-7.50
2019-01-22T04:40:48.435Z,-7.60
2019-01-22T04:43:32.033Z,-7.60
2019-01-22T04:46:03.987Z,-7.40
2019-01-22T04:48:44.301Z,-7.30
2019-01-22T04:51:21.507Z,-7.50
2019-01-22T04:53:58.894Z,-7.60
2019-01-22T04:56:51.163Z,-7.60
2019-01-22T04:59:39.125Z,-7.60
2019-01-22T05:02:13.288Z,-7.60
2019-01-22T05:04:44.915Z,-7.60
2019-01-22T05:07:19.270Z,-7.60
2019-01-22T05:09:57.083Z,-7.60
2019-01-22T05:12:45.169Z,-7.60
2019-01-22T05:15:39.093Z,-7.60
2019-01-22T05:18:13.282Z,-7.50
2019-01-22T05:21:18.355Z,-7.60
2019-01-22T05:24:08.123Z,-7.60
2019-01-22T05:27:14.735Z,-7.60
2019-01-22T05:29:52.217Z,-7.60
2019-01-22T05:32:32.639Z,-7.40
2019-01-22T05:35:13.181Z,-7.50
2019-01-22T05:37:50.677Z,-7.50
2019-01-22T05:40:22.602Z,-7.70
2019-01-22T05:42:57.069Z,-7.70
2019-01-22T05:45:31.808Z,-7.80
2019-01-22T05:48:15.905Z,-7.80
2019-01-22T05:50:50.563Z,-7.80
2019-01-22T05:53:46.313Z,-7.90
2019-01-22T05:56:23.602Z,-7.90
2019-01-22T05:59:10.493Z,-7.90
2019-01-22T06:01:42.074Z,-7.80
2019-01-22T06:04:33.304Z,-7.80
2019-01-22T06:07:13.682Z,-7.70
2019-01-22T06:09:54.297Z,-7.50
2019-01-22T06:12:28.690Z,-7.50
2019-01-22T06:15:03.124Z,-7.60
2019-01-22T06:17:46.928Z,-7.50
2019-01-22T06:20:24.622Z,-7.40
2019-01-22T06:23:07.808Z,-7.50
2019-01-22T06:25:49.715Z,-7.40
2019-01-22T06:28:30.486Z,-7.50
2019-01-22T06:31:10.826Z,-7.60
2019-01-22T06:33:45.423Z,-7.80
2019-01-22T06:36:25.993Z,-7.80
2019-01-22T06:39:09.657Z,-7.70
2019-01-22T06:41:43.954Z,-7.70
2019-01-22T06:44:36.703Z,-7.80
2019-01-22T06:47:10.948Z,-7.80
2019-01-22T06:49:57.857Z,-7.70
2019-01-22T06:52:49.930Z,-7.60
2019-01-22T06:55:21.562Z,-7.60
2019-01-22T06:58:26.391Z,-7.70
2019-01-22T07:01:03.988Z,-7.70
2019-01-22T07:03:46.915Z,-7.80
2019-01-22T07:06:39.874Z,-7.70
2019-01-22T07:09:41.652Z,-7.60
2019-01-22T07:12:15.878Z,-7.70
2019-01-22T07:14:47.461Z,-7.60
2019-01-22T07:17:27.914Z,-7.50
2019-01-22T07:20:17.210Z,-7.50
2019-01-22T07:22:48.839Z,-7.50
2019-01-22T07:25:38.809Z,-7.60
2019-01-22T07:28:13.433Z,-7.60
2019-01-22T07:30:50.687Z,-7.50
2019-01-22T07:33:40.682Z,-7.40
2019-01-22T07:36:14.926Z,-7.40
2019-01-22T07:39:07.783Z,-7.30
2019-01-22T07:41:42.159Z,-7.20
2019-01-22T07:44:19.444Z,-7.30
2019-01-22T07:46:57.061Z,-7.40
2019-01-22T07:49:34.558Z,-7.30
2019-01-22T07:52:08.829Z,-7.20
2019-01-22T07:54:57.094Z,-7.20
2019-01-22T07:57:48.516Z,-7.30
2019-01-22T08:00:37.278Z,-7.30
2019-01-22T08:03:13.246Z,-7.10
2019-01-22T08:05:46.544Z,-7.00
2019-01-22T08:08:28.476Z,-7.00
2019-01-22T08:11:22.803Z,-6.80
2019-01-22T08:14:00.020Z,-6.70
2019-01-22T08:16:48.303Z,-6.60
2019-01-22T08:19:25.494Z,-6.50
2019-01-22T08:22:02.646Z,-6.40
2019-01-22T08:24:43.286Z,-6.40
2019-01-22T08:27:31.694Z,-6.40
2019-01-22T08:30:12.370Z,-6.30
2019-01-22T08:32:55.913Z,-6.20
2019-01-22T08:35:33.085Z,-6.10
2019-01-22T08:38:19.702Z,-6.10
2019-01-22T08:41:11.225Z,-6.00
2019-01-22T08:43:59.868Z,-6.00
2019-01-22T08:46:40.827Z,-6.00
2019-01-22T08:49:18.311Z,-5.90
2019-01-22T08:52:04.978Z,-5.90
2019-01-22T08:54:42.298Z,-5.90
2019-01-22T08:57:31.891Z,-5.90
2019-01-22T09:00:16.695Z,-5.80
2019-01-22T09:03:08.126Z,-5.80
2019-01-22T09:05:45.617Z,-5.70
2019-01-22T09:08:22.877Z,-5.70
2019-01-22T09:10:57.293Z,-5.60
2019-01-22T09:13:31.539Z,-5.70
2019-01-22T09:16:06.078Z,-5.70
2019-01-22T09:18:58.944Z,-5.60
2019-01-22T09:21:42.355Z,-5.30
2019-01-22T09:24:20.026Z,-5.50
2019-01-22T09:27:14.330Z,-5.40
2019-01-22T09:29:52.399Z,-5.40
2019-01-22T09:32:48.408Z,-5.30
2019-01-22T09:35:42.575Z,-5.30
2019-01-22T09:38:11.668Z,-5.10
2019-01-22T09:40:40.416Z,-5.20
2019-01-22T09:43:09.414Z,-5.10
2019-01-22T09:45:38.037Z,-5.10
2019-01-22T09:48:06.757Z,-5.10
2019-01-22T09:50:35.661Z,-5.00
2019-01-22T09:53:04.270Z,-5.00
2019-01-22T09:55:32.863Z,-5.00
2019-01-22T09:58:01.407Z,-5.00
2019-01-22T10:00:30.409Z,-4.90
2019-01-22T10:02:58.926Z,-4.70
2019-01-22T10:05:28.790Z,-4.60
2019-01-22T10:07:57.400Z,-4.60
2019-01-22T10:10:26.226Z,-4.60
2019-01-22T10:12:55.034Z,-4.70
2019-01-22T10:15:23.694Z,-4.60
2019-01-22T10:17:52.607Z,-4.50
2019-01-22T10:20:23.343Z,-4.40
2019-01-22T10:22:52.121Z,-4.20
2019-01-22T10:25:21.626Z,-4.20
2019-01-22T10:27:50.190Z,-4.10
2019-01-22T10:30:21.566Z,-4.10
2019-01-22T10:32:50.441Z,-4.00
2019-01-22T10:35:19.126Z,-3.90
2019-01-22T10:37:47.862Z,-3.90
2019-01-22T10:40:22.230Z,-3.80
2019-01-22T10:42:51.355Z,-3.70
2019-01-22T10:45:20.689Z,-3.70
2019-01-22T10:47:49.399Z,-3.70
2019-01-22T10:50:22.005Z,-3.60
2019-01-22T10:52:50.627Z,-3.70
2019-01-22T10:55:19.283Z,-3.50
2019-01-22T10:57:47.835Z,-3.50
2019-01-22T11:00:19.518Z,-3.50
2019-01-22T11:02:48.149Z,-3.30
2019-01-22T11:05:22.340Z,-3.40
2019-01-22T11:07:50.889Z,-3.50
2019-01-22T11:10:19.372Z,-3.30
2019-01-22T11:12:47.964Z,-3.30
2019-01-22T11:15:16.587Z,-3.30
2019-01-22T11:17:45.474Z,-3.10
2019-01-22T11:20:25.525Z,-3.10
2019-01-22T11:22:54.187Z,-3.20
2019-01-22T11:25:25.274Z,-3.10
2019-01-22T11:27:53.863Z,-3.10
2019-01-22T11:30:24.406Z,-3.10
2019-01-22T11:32:53.014Z,-3.10
2019-01-22T11:35:23.239Z,-3.10
2019-01-22T11:37:52.250Z,-2.90
2019-01-22T11:40:29.665Z,-2.80
2019-01-22T11:42:58.672Z,-2.80
2019-01-22T11:45:27.187Z,-2.80
2019-01-22T11:47:55.743Z,-2.70
2019-01-22T11:50:25.245Z,-2.70
2019-01-22T11:52:53.791Z,-2.70
2019-01-22T11:55:22.652Z,-2.60
2019-01-22T11:57:51.217Z,-2.60
2019-01-22T12:00:29.553Z,-2.50
2019-01-22T12:02:58.037Z,-2.50
2019-01-22T12:05:28.940Z,-2.40
2019-01-22T12:07:58.671Z,-2.50
2019-01-22T12:10:27.226Z,-2.30
2019-01-22T12:12:55.802Z,-2.40
2019-01-22T12:15:25.215Z,-2.30
2019-01-22T12:17:54.033Z,-2.50
2019-01-22T12:20:37.440Z,-2.30
2019-01-22T12:23:06.171Z,-2.20
2019-01-22T12:25:34.718Z,-2.20
2019-01-22T12:28:03.460Z,-2.30
2019-01-22T12:30:34.758Z,-2.20
2019-01-22T12:33:03.402Z,-2.20
2019-01-22T12:35:32.102Z,-2.10
2019-01-22T12:38:00.759Z,-2.10
2019-01-22T12:40:30.020Z,-2.00
2019-01-22T12:42:59.509Z,-2.00
2019-01-22T12:45:33.530Z,-1.90
2019-01-22T12:48:02.120Z,-1.90
2019-01-22T12:50:30.914Z,-1.90
2019-01-22T12:52:59.493Z,-1.80
2019-01-22T12:55:28.115Z,-1.80
2019-01-22T12:57:56.831Z,-1.70
2019-01-22T13:00:36.743Z,-1.80
2019-01-22T13:03:05.668Z,-1.80
2019-01-22T13:05:46.407Z,-1.90
2019-01-22T13:08:15.395Z,-1.80
2019-01-22T13:10:43.941Z,-1.70
2019-01-22T13:13:12.521Z,-1.80
2019-01-22T13:15:41.065Z,-1.90
2019-01-22T13:18:09.718Z,-1.80
2019-01-22T13:20:38.628Z,-1.90
2019-01-22T13:23:07.342Z,-1.90
2019-01-22T13:25:35.886Z,-1.90
2019-01-22T13:28:05.106Z,-1.80
2019-01-22T13:30:33.727Z,-1.80
2019-01-22T13:33:02.304Z,-1.80
2019-01-22T13:35:30.946Z,-1.80
2019-01-22T13:37:59.793Z,-1.80
2019-01-22T13:40:28.298Z,-1.70
2019-01-22T13:42:56.855Z,-1.80
2019-01-22T13:45:31.124Z,-1.70
2019-01-22T13:48:01.523Z,-1.70
2019-01-22T13:50:30.211Z,-1.70
2019-01-22T13:52:58.754Z,-1.60
2019-01-22T13:55:29.573Z,-1.50
2019-01-22T13:57:58.135Z,-1.50
2019-01-22T14:00:28.264Z,-1.50
2019-01-22T14:02:58.754Z,-1.60
2019-01-22T14:05:28.773Z,-1.50
2019-01-22T14:07:57.589Z,-1.50
2019-01-22T14:10:26.530Z,-1.60
2019-01-22T14:12:56.612Z,-1.60
2019-01-22T14:15:34.626Z,-1.60
2019-01-22T14:18:03.249Z,-1.60
2019-01-22T14:20:31.891Z,-1.50
2019-01-22T14:23:00.516Z,-1.50
2019-01-22T14:25:29.151Z,-1.50
2019-01-22T14:27:57.699Z,-1.50
2019-01-22T14:30:28.612Z,-1.50
2019-01-22T14:32:57.222Z,-1.50
2019-01-22T14:35:25.817Z,-1.50
2019-01-22T14:37:54.411Z,-1.60
2019-01-22T14:40:23.142Z,-1.50
2019-01-22T14:42:51.858Z,-1.50
2019-01-22T14:45:22.365Z,-1.60
2019-01-22T14:47:51.051Z,-1.60
2019-01-22T14:50:22.338Z,-1.60
2019-01-22T14:52:50.870Z,-1.70
2019-01-22T14:55:19.510Z,-1.60
2019-01-22T14:57:48.589Z,-1.70
2019-01-22T15:00:19.532Z,-1.50
2019-01-22T15:02:48.219Z,-1.50
2019-01-22T15:05:16.935Z,-1.50
2019-01-22T15:07:45.478Z,-1.40
2019-01-22T15:10:16.219Z,-1.40
2019-01-22T15:12:47.012Z,-1.40
2019-01-22T15:15:17.224Z,-1.40
2019-01-22T15:17:48.792Z,-1.30
2019-01-22T15:20:22.573Z,-1.30
2019-01-22T15:22:51.355Z,-1.30
2019-01-22T15:25:20.002Z,-1.30
2019-01-22T15:27:48.549Z,-1.40
2019-01-22T15:30:29.200Z,-1.30
2019-01-22T15:32:57.747Z,-1.40
2019-01-22T15:35:44.117Z,-1.60
2019-01-22T15:38:12.663Z,-1.60
2019-01-22T15:40:41.251Z,-1.50
2019-01-22T15:43:10.130Z,-1.40
2019-01-22T15:45:38.787Z,-1.30
2019-01-22T15:48:07.406Z,-1.30
2019-01-22T15:50:35.995Z,-1.20
2019-01-22T15:53:04.715Z,-1.20
2019-01-22T15:55:34.306Z,-1.10
2019-01-22T15:58:02.973Z,-1.10
2019-01-22T16:00:31.627Z,-1.20
2019-01-22T16:03:00.093Z,-1.30
2019-01-22T16:05:28.747Z,-1.20
2019-01-22T16:07:57.295Z,-1.30
2019-01-22T16:10:25.951Z,-1.30
2019-01-22T16:12:55.881Z,-1.40
2019-01-22T16:15:24.930Z,-1.50
2019-01-22T16:17:54.311Z,-1.40
2019-01-22T16:20:27.358Z,-1.30
2019-01-22T16:23:15.198Z,-1.40
2019-01-22T16:25:44.063Z,-1.30
2019-01-22T16:28:12.641Z,-1.30
2019-01-22T16:30:41.118Z,-1.40
2019-01-22T16:33:09.693Z,-1.30
2019-01-22T16:35:38.237Z,-1.30
2019-01-22T16:38:06.877Z,-1.30
2019-01-22T16:40:35.354Z,-1.30
2019-01-22T16:43:04.006Z,-1.40
2019-01-22T16:45:34.196Z,-1.40
2019-01-22T16:48:02.767Z,-1.40
2019-01-22T16:50:33.361Z,-1.40
2019-01-22T16:53:03.980Z,-1.30
2019-01-22T16:55:35.635Z,-1.20
2019-01-22T16:58:04.408Z,-1.30
2019-01-22T17:00:34.891Z,-1.10
2019-01-22T17:03:04.212Z,-1.30
2019-01-22T17:05:32.831Z,-1.40
2019-01-22T17:08:01.418Z,-1.40
2019-01-22T17:10:30.031Z,-1.50
2019-01-22T17:12:58.627Z,-1.60
2019-01-22T17:15:27.307Z,-1.60
2019-01-22T17:17:55.885Z,-1.30
2019-01-22T17:20:27.066Z,-1.30
2019-01-22T17:23:01.724Z,-1.40
2019-01-22T17:25:26.069Z,-1.40
2019-01-22T17:27:54.966Z,-1.20
2019-01-22T17:30:24.058Z,-1.20
2019-01-22T17:35:45.043Z,-1.40
2019-01-22T17:38:13.702Z,-1.40
2019-01-22T17:40:42.307Z,-1.40
2019-01-22T17:43:10.953Z,-1.40
2019-01-22T17:45:39.502Z,-1.30
2019-01-22T17:48:08.559Z,-1.20
2019-01-22T17:50:37.133Z,-1.40
2019-01-22T17:53:07.650Z,-1.50
2019-01-22T17:55:35.990Z,-1.40
2019-01-22T17:58:04.819Z,-1.40
2019-01-22T18:00:34.774Z,-1.40
2019-01-22T18:03:03.282Z,-1.40
2019-01-22T18:05:31.822Z,-1.40
2019-01-22T18:08:00.342Z,-1.30
2019-01-22T18:10:29.218Z,-1.20
2019-01-22T18:12:57.787Z,-1.30
2019-01-22T18:15:26.443Z,-1.30
2019-01-22T18:17:54.990Z,-1.40
2019-01-22T18:20:29.695Z,-1.50
2019-01-22T18:22:58.247Z,-1.50
2019-01-22T18:25:26.830Z,-1.40
2019-01-22T18:27:55.390Z,-1.40
2019-01-22T18:30:25.509Z,-1.40
2019-01-22T18:32:54.293Z,-1.50
2019-01-22T18:35:26.054Z,-1.50
2019-01-22T18:37:54.623Z,-1.60
2019-01-22T18:40:23.289Z,-1.60
2019-01-22T18:42:51.770Z,-1.50
2019-01-22T18:45:20.493Z,-1.50
2019-01-22T18:47:49.034Z,-1.50
2019-01-22T18:50:25.048Z,-1.50
2019-01-22T18:52:53.673Z,-1.50
2019-01-22T18:55:23.310Z,-1.70
2019-01-22T18:57:52.211Z,-1.60
2019-01-22T19:00:24.194Z,-1.60
2019-01-22T19:02:52.927Z,-1.60
2019-01-22T19:05:22.046Z,-1.70
2019-01-22T19:07:50.703Z,-1.70
2019-01-22T19:10:29.070Z,-1.70
2019-01-22T19:12:57.625Z,-1.70
2019-01-22T19:15:26.682Z,-1.70
2019-01-22T19:17:55.305Z,-1.70
2019-01-22T19:20:23.892Z,-1.70
2019-01-22T19:22:52.513Z,-1.70
2019-01-22T19:25:23.362Z,-1.80
2019-01-22T19:27:52.008Z,-1.80
2019-01-22T19:30:23.236Z,-1.60
2019-01-22T19:32:51.782Z,-1.60
2019-01-22T19:35:20.500Z,-1.70
2019-01-22T19:37:49.122Z,-1.70
2019-01-22T19:40:18.949Z,-1.80
2019-01-22T19:42:47.850Z,-1.80
2019-01-22T19:45:27.686Z,-1.80
2019-01-22T19:47:56.379Z,-1.80
2019-01-22T19:50:25.101Z,-1.80
2019-01-22T19:52:53.650Z,-2.00
2019-01-22T19:55:22.222Z,-2.00
2019-01-22T19:57:50.854Z,-1.90
2019-01-22T20:00:22.245Z,-2.00
2019-01-22T20:02:50.814Z,-1.80
2019-01-22T20:05:19.522Z,-1.80
2019-01-22T20:07:48.153Z,-1.70
2019-01-22T20:10:17.782Z,-1.70
2019-01-22T20:12:46.474Z,-1.80
2019-01-22T20:15:22.930Z,-1.90
2019-01-22T20:17:51.410Z,-1.90
2019-01-22T20:20:20.862Z,-1.80
2019-01-22T20:22:49.490Z,-1.90
2019-01-22T20:25:18.902Z,-1.90
2019-01-22T20:27:48.297Z,-2.00
2019-01-22T20:30:23.107Z,-2.00
2019-01-22T20:32:52.035Z,-1.90
2019-01-22T20:35:20.687Z,-1.90
2019-01-22T20:37:49.238Z,-1.90
2019-01-22T20:40:17.792Z,-1.90
2019-01-22T20:42:46.366Z,-2.00
2019-01-22T20:45:26.581Z,-2.00
2019-01-22T20:47:55.226Z,-2.00
2019-01-22T20:50:25.622Z,-1.90
2019-01-22T20:52:54.314Z,-1.90
2019-01-22T20:55:24.215Z,-2.00
2019-01-22T20:57:55.045Z,-2.10
2019-01-22T21:00:24.895Z,-2.00
2019-01-22T21:02:53.811Z,-2.00
2019-01-22T21:05:24.514Z,-2.00
2019-01-22T21:07:53.094Z,-2.00
2019-01-22T21:10:24.283Z,-2.00
2019-01-22T21:12:53.007Z,-2.00
2019-01-22T21:15:21.687Z,-2.00
2019-01-22T21:17:50.330Z,-2.10
2019-01-22T21:20:19.620Z,-2.10
2019-01-22T21:22:48.271Z,-2.10
2019-01-22T21:25:19.064Z,-2.10
2019-01-22T21:27:47.634Z,-2.20
2019-01-22T21:30:25.236Z,-2.10
2019-01-22T21:32:58.063Z,-2.10
2019-01-22T21:35:26.783Z,-2.20
2019-01-22T21:37:55.557Z,-2.10
2019-01-22T21:40:24.772Z,-2.10
2019-01-22T21:42:53.798Z,-2.10
2019-01-22T21:45:25.459Z,-2.10
2019-01-22T21:47:53.969Z,-2.00
2019-01-22T21:50:22.585Z,-2.00
2019-01-22T21:52:51.186Z,-2.10
2019-01-22T21:55:21.855Z,-2.00
2019-01-22T21:57:50.493Z,-2.10
2019-01-22T22:00:23.900Z,-2.10
2019-01-22T22:02:52.479Z,-2.10
2019-01-22T22:05:23.468Z,-1.90
2019-01-22T22:07:52.046Z,-2.00
2019-01-22T22:10:21.630Z,-1.90
2019-01-22T22:12:50.555Z,-2.00
2019-01-22T22:15:26.520Z,-2.00
2019-01-22T22:17:55.565Z,-1.90
2019-01-22T22:20:24.450Z,-1.90
2019-01-22T22:22:53.043Z,-1.90
2019-01-22T22:25:23.122Z,-1.90
2019-01-22T22:27:52.072Z,-2.00
2019-01-22T22:30:26.329Z,-2.10
2019-01-22T22:32:54.977Z,-1.90
2019-01-22T22:35:23.944Z,-1.90
2019-01-22T22:37:52.595Z,-2.00
2019-01-22T22:40:22.295Z,-2.00
2019-01-22T22:42:51.018Z,-1.90
2019-01-22T22:45:22.073Z,-1.90
2019-01-22T22:47:50.854Z,-2.00
2019-01-22T22:50:21.639Z,-2.00
2019-01-22T22:52:50.210Z,-2.00
2019-01-22T22:55:18.771Z,-2.00
2019-01-22T22:57:47.321Z,-2.00
2019-01-22T23:00:32.313Z,-1.90
2019-01-22T23:03:02.501Z,-1.90
2019-01-22T23:05:31.384Z,-2.00
2019-01-22T23:08:00.004Z,-2.10
2019-01-22T23:10:28.575Z,-1.90
2019-01-22T23:12:57.127Z,-1.80
2019-01-22T23:15:25.841Z,-1.90
2019-01-22T23:17:54.386Z,-2.00
2019-01-22T23:20:23.023Z,-2.10
2019-01-22T23:22:51.632Z,-2.10
2019-01-22T23:25:20.130Z,-2.10
2019-01-22T23:27:48.745Z,-2.10
2019-01-22T23:30:17.982Z,-2.00
2019-01-22T23:32:46.603Z,-1.90
2019-01-22T23:35:16.317Z,-2.00
2019-01-22T23:37:44.789Z,-1.80
2019-01-22T23:40:15.694Z,-1.90
2019-01-22T23:42:44.308Z,-2.00
2019-01-22T23:45:14.326Z,-1.90
2019-01-22T23:47:42.942Z,-1.90
2019-01-22T23:50:14.052Z,-1.90
2019-01-22T23:52:42.586Z,-2.00
2019-01-22T23:55:11.696Z,-1.80
2019-01-22T23:57:40.168Z,-1.90
